Time;durP1;ratioP1;P1;durP2;ratioP2;P2;SDS_P1;SDS_P2;PMS_P1;PMS_P2;Temp;Humidity;BMP_temperature;BMP_pressure;BME280_temperature;BME280_humidity;BME280_pressure;Samples;Min_cycle;Max_cycle;Signal;HPM_P1;HPM_P2
2023/10/29 00:01:41;;;;;;;2.67;1.50;;;9.40;99.90;;;;;;4966005;28;20038;-88
2023/10/29 00:04:07;;;;;;;4.03;1.50;;;9.40;99.90;;;;;;4964775;28;20409;-89
2023/10/29 00:06:34;;;;;;;3.10;1.50;;;9.30;99.90;;;;;;4965422;28;20030;-87
2023/10/29 00:08:59;;;;;;;2.37;1.20;;;9.20;99.90;;;;;;4965529;28;20070;-88
2023/10/29 00:11:25;;;;;;;2.23;1.33;;;9.20;99.90;;;;;;4965645;28;20090;-88
2023/10/29 00:13:51;;;;;;;3.90;1.43;;;9.10;99.90;;;;;;4964928;28;20081;-88
2023/10/29 00:16:17;;;;;;;6.13;1.43;;;9.10;99.90;;;;;;4965246;28;20912;-88
2023/10/29 00:18:43;;;;;;;2.70;1.40;;;9.00;99.90;;;;;;4964398;28;20081;-88
2023/10/29 00:21:08;;;;;;;3.80;1.20;;;9.00;99.90;;;;;;4965412;28;20482;-88
2023/10/29 00:23:34;;;;;;;4.00;1.30;;;8.90;99.90;;;;;;4965703;28;20041;-88
2023/10/29 00:26:00;;;;;;;3.40;1.20;;;8.90;99.90;;;;;;4965278;28;20473;-88
2023/10/29 00:28:25;;;;;;;2.47;1.20;;;8.90;99.90;;;;;;4964836;28;20493;-89
2023/10/29 00:30:53;;;;;;;2.50;1.30;;;8.90;99.90;;;;;;4965773;28;20045;-87
2023/10/29 00:33:19;;;;;;;3.27;1.20;;;8.80;99.90;;;;;;4965580;28;20521;-88
2023/10/29 00:35:44;;;;;;;7.60;1.20;;;8.80;99.90;;;;;;4969623;28;20099;-87
2023/10/29 00:38:10;;;;;;;4.67;1.30;;;8.70;99.90;;;;;;4970525;28;20034;-88
2023/10/29 00:40:39;;;;;;;4.10;1.50;;;8.70;99.90;;;;;;4970644;28;20027;-89
2023/10/29 00:43:05;;;;;;;4.50;1.50;;;8.70;99.90;;;;;;4965072;28;20102;-88
2023/10/29 00:45:31;;;;;;;4.73;1.60;;;8.60;99.90;;;;;;4964936;28;20042;-88
2023/10/29 00:47:56;;;;;;;3.40;1.50;;;8.50;99.90;;;;;;4965280;28;20029;-88
2023/10/29 00:50:22;;;;;;;3.27;1.40;;;8.50;99.90;;;;;;4965657;28;20366;-88
2023/10/29 00:52:48;;;;;;;3.73;1.77;;;8.40;99.90;;;;;;4966220;28;20027;-87
2023/10/29 00:55:14;;;;;;;4.33;1.60;;;8.40;99.90;;;;;;4964587;28;20032;-88
2023/10/29 00:57:40;;;;;;;1.90;1.30;;;8.30;99.90;;;;;;4966287;28;20046;-89
2023/10/29 01:00:06;;;;;;;3.80;1.60;;;8.20;99.90;;;;;;4965521;28;20027;-88
2023/10/29 01:02:33;;;;;;;1.87;1.30;;;8.20;99.90;;;;;;4964638;28;20043;-88
2023/10/29 01:05:00;;;;;;;3.93;1.47;;;8.10;99.90;;;;;;4966441;28;20085;-88
2023/10/29 01:07:26;;;;;;;3.83;1.40;;;8.10;99.90;;;;;;4968814;28;20034;-89
2023/10/29 01:09:51;;;;;;;4.63;1.80;;;8.10;99.90;;;;;;4967964;28;20485;-88
2023/10/29 01:12:19;;;;;;;3.40;1.40;;;8.00;99.90;;;;;;4968592;28;20472;-89
2023/10/29 01:14:44;;;;;;;3.27;1.50;;;7.90;99.90;;;;;;4966919;28;20114;-88
2023/10/29 01:17:10;;;;;;;2.33;1.40;;;7.90;99.90;;;;;;4968410;28;20033;-88
2023/10/29 01:19:35;;;;;;;4.07;1.50;;;7.90;99.90;;;;;;4968053;28;20771;-88
2023/10/29 01:22:01;;;;;;;3.27;1.73;;;7.80;99.90;;;;;;4968553;28;20034;-88
2023/10/29 01:24:28;;;;;;;2.83;1.30;;;7.80;99.90;;;;;;4968192;28;20026;-88
2023/10/29 01:26:54;;;;;;;3.33;1.50;;;7.80;99.90;;;;;;4968025;28;20023;-88
2023/10/29 01:29:19;;;;;;;5.83;1.50;;;7.70;99.90;;;;;;4968329;28;20158;-87
2023/10/29 01:31:48;;;;;;;3.53;1.50;;;7.70;99.90;;;;;;4968506;28;20378;-89
2023/10/29 01:34:14;;;;;;;3.07;1.43;;;7.70;99.90;;;;;;4974081;28;20026;-91
2023/10/29 01:36:40;;;;;;;3.23;1.30;;;7.60;99.90;;;;;;5002912;28;20034;-90
2023/10/29 01:39:06;;;;;;;6.37;1.70;;;7.60;99.90;;;;;;5007029;28;20080;-88
2023/10/29 01:41:32;;;;;;;3.40;1.30;;;7.60;99.90;;;;;;4994271;28;20042;-87
2023/10/29 01:43:59;;;;;;;1.83;1.20;;;7.60;99.90;;;;;;4970582;28;20035;-88
2023/10/29 01:46:25;;;;;;;3.80;1.50;;;7.60;99.90;;;;;;4968105;28;20058;-88
2023/10/29 01:48:50;;;;;;;4.00;1.60;;;7.60;99.90;;;;;;4967879;28;20070;-89
2023/10/29 01:51:16;;;;;;;4.13;1.60;;;7.60;99.90;;;;;;4968148;28;20166;-88
2023/10/29 01:53:41;;;;;;;3.67;1.30;;;7.50;99.90;;;;;;4967685;28;20053;-88
2023/10/29 01:56:08;;;;;;;3.60;2.20;;;7.50;99.90;;;;;;4967451;28;20031;-88
2023/10/29 01:58:34;;;;;;;4.10;1.43;;;7.50;99.90;;;;;;4967531;28;20159;-88
2023/10/29 02:01:00;;;;;;;3.07;1.53;;;7.40;99.90;;;;;;4967948;28;20082;-89
2023/10/29 02:03:26;;;;;;;12.67;2.33;;;7.40;99.90;;;;;;4967983;28;20434;-87
2023/10/29 02:05:52;;;;;;;3.17;1.80;;;7.40;99.90;;;;;;4967567;28;20054;-87
2023/10/29 02:08:18;;;;;;;2.97;1.50;;;7.40;99.90;;;;;;4967524;28;20039;-88
2023/10/29 02:10:45;;;;;;;2.20;1.40;;;7.30;99.90;;;;;;4967991;28;20499;-88
2023/10/29 02:13:10;;;;;;;2.47;1.70;;;7.30;99.90;;;;;;4967853;28;20038;-87
2023/10/29 02:15:36;;;;;;;3.20;1.60;;;7.30;99.90;;;;;;4967147;28;20030;-88
2023/10/29 02:18:01;;;;;;;2.80;1.63;;;7.30;99.90;;;;;;4972079;28;20035;-88
2023/10/29 02:20:27;;;;;;;2.90;1.70;;;7.20;99.90;;;;;;4974392;28;20019;-87
2023/10/29 02:22:53;;;;;;;2.80;1.37;;;7.20;99.90;;;;;;4971730;28;20085;-89
2023/10/29 02:25:18;;;;;;;4.73;1.73;;;7.20;99.90;;;;;;4967009;28;20514;-87
2023/10/29 02:27:44;;;;;;;3.30;1.37;;;7.20;99.90;;;;;;4967640;28;20600;-88
2023/10/29 02:30:10;;;;;;;3.33;1.60;;;7.20;99.90;;;;;;4966730;28;20031;-88
2023/10/29 02:32:36;;;;;;;2.37;1.60;;;7.20;99.90;;;;;;4967107;28;20037;-88
2023/10/29 02:35:02;;;;;;;2.40;1.70;;;7.20;99.90;;;;;;4966616;28;20018;-88
2023/10/29 02:37:27;;;;;;;4.93;1.57;;;7.20;99.90;;;;;;4967270;28;20038;-88
2023/10/29 02:39:53;;;;;;;4.37;1.87;;;7.20;99.90;;;;;;4966120;28;20035;-88
2023/10/29 02:42:19;;;;;;;4.53;1.73;;;7.30;99.90;;;;;;4967154;28;20533;-88
2023/10/29 02:44:44;;;;;;;3.50;1.80;;;7.30;99.90;;;;;;4965493;28;20645;-87
2023/10/29 02:47:10;;;;;;;3.13;1.63;;;7.40;99.90;;;;;;4966410;28;20362;-88
2023/10/29 02:49:36;;;;;;;5.70;1.83;;;7.40;99.90;;;;;;4966179;28;20125;-87
2023/10/29 02:52:01;;;;;;;2.03;1.50;;;7.50;99.90;;;;;;4966314;28;20074;-88
2023/10/29 02:54:27;;;;;;;2.20;1.63;;;7.50;99.90;;;;;;4966098;28;20034;-88
2023/10/29 02:56:52;;;;;;;5.83;1.60;;;7.50;99.90;;;;;;4966120;28;20026;-88
2023/10/29 02:59:18;;;;;;;3.53;1.80;;;7.60;99.90;;;;;;4965768;28;20035;-88
2023/10/29 03:01:43;;;;;;;4.20;1.80;;;7.60;99.90;;;;;;4965688;28;20512;-88
2023/10/29 03:04:09;;;;;;;3.57;1.80;;;7.60;99.90;;;;;;4965679;28;20202;-87
2023/10/29 03:06:38;;;;;;;3.13;1.80;;;7.60;99.90;;;;;;4964954;28;20078;-87
2023/10/29 03:09:05;;;;;;;3.10;1.50;;;7.70;99.90;;;;;;4965560;28;20393;-88
2023/10/29 03:11:30;;;;;;;3.37;1.63;;;7.70;99.90;;;;;;4966042;28;20162;-88
2023/10/29 03:13:57;;;;;;;2.57;1.70;;;7.60;99.90;;;;;;4965281;28;20022;-87
2023/10/29 03:16:22;;;;;;;2.60;1.40;;;7.60;99.90;;;;;;4965606;28;20039;-87
2023/10/29 03:18:48;;;;;;;6.77;1.63;;;7.60;99.90;;;;;;4965256;28;20100;-87
2023/10/29 03:21:17;;;;;;;2.73;1.57;;;7.60;99.90;;;;;;4965642;28;20114;-88
2023/10/29 03:23:43;;;;;;;2.20;1.57;;;7.60;99.90;;;;;;4965498;28;20023;-88
2023/10/29 03:26:08;;;;;;;6.77;1.97;;;7.60;99.90;;;;;;4965139;28;20400;-88
2023/10/29 03:28:35;;;;;;;4.00;1.50;;;7.50;99.90;;;;;;4964236;28;20058;-88
2023/10/29 03:31:01;;;;;;;3.97;1.60;;;7.50;99.90;;;;;;4965568;28;20096;-88
2023/10/29 03:33:27;;;;;;;2.67;1.60;;;7.40;99.90;;;;;;4963971;28;20034;-87
2023/10/29 03:35:52;;;;;;;2.87;1.50;;;7.40;99.90;;;;;;4964698;28;20031;-88
2023/10/29 03:38:18;;;;;;;3.90;1.50;;;7.40;99.90;;;;;;4965052;28;20727;-88
2023/10/29 03:40:44;;;;;;;5.83;1.77;;;7.30;99.90;;;;;;4965347;28;20034;-89
2023/10/29 03:43:09;;;;;;;5.33;1.80;;;7.30;99.90;;;;;;4965535;28;20026;-88
2023/10/29 03:45:35;;;;;;;2.83;1.50;;;7.30;99.90;;;;;;4965493;28;20169;-87
2023/10/29 03:48:00;;;;;;;2.53;1.60;;;7.20;99.90;;;;;;4965342;28;20405;-88
2023/10/29 03:50:27;;;;;;;4.13;1.80;;;7.20;99.90;;;;;;4965382;28;20164;-89
2023/10/29 03:52:52;;;;;;;4.57;1.90;;;7.10;99.90;;;;;;4965371;28;20034;-88
2023/10/29 03:55:18;;;;;;;2.67;1.80;;;7.10;99.90;;;;;;4963939;28;20041;-88
2023/10/29 03:57:44;;;;;;;3.83;1.80;;;7.10;99.90;;;;;;4966074;28;20034;-88
2023/10/29 04:00:10;;;;;;;4.17;1.40;;;7.00;99.90;;;;;;4964584;28;20101;-87
2023/10/29 04:02:36;;;;;;;4.50;1.50;;;7.00;99.90;;;;;;4965461;28;20097;-87
2023/10/29 04:05:02;;;;;;;3.80;1.70;;;6.90;99.90;;;;;;4964576;28;20039;-88
2023/10/29 04:07:28;;;;;;;2.77;1.70;;;6.90;99.90;;;;;;4964092;28;20030;-88
2023/10/29 04:09:53;;;;;;;2.57;1.47;;;6.90;99.90;;;;;;4965949;28;20030;-89
2023/10/29 04:12:19;;;;;;;2.97;1.60;;;6.80;99.90;;;;;;4965273;28;20094;-87
2023/10/29 04:14:44;;;;;;;4.20;1.90;;;6.80;99.90;;;;;;4965008;28;20027;-88
2023/10/29 04:17:10;;;;;;;3.10;1.70;;;6.70;99.90;;;;;;4965565;28;20162;-87
2023/10/29 04:19:36;;;;;;;4.97;1.87;;;6.70;99.90;;;;;;4965343;28;20390;-87
2023/10/29 04:22:02;;;;;;;2.47;1.37;;;6.70;99.90;;;;;;4965134;28;20034;-87
2023/10/29 04:24:28;;;;;;;2.63;1.70;;;6.60;99.90;;;;;;4965617;28;20027;-87
2023/10/29 04:26:54;;;;;;;3.30;1.60;;;6.60;99.90;;;;;;4965625;28;20031;-87
2023/10/29 04:29:21;;;;;;;4.47;2.10;;;6.50;99.90;;;;;;4970966;28;20039;-89
2023/10/29 04:31:47;;;;;;;2.50;1.60;;;6.50;99.90;;;;;;4972547;28;20058;-88
2023/10/29 04:34:13;;;;;;;2.17;1.70;;;6.40;99.90;;;;;;4977056;28;20034;-90
2023/10/29 04:36:41;;;;;;;2.67;1.50;;;6.40;99.90;;;;;;4999118;28;20077;-90
2023/10/29 04:39:07;;;;;;;3.50;1.50;;;6.30;99.90;;;;;;5002546;28;20014;-87
2023/10/29 04:41:32;;;;;;;3.40;1.60;;;6.30;99.90;;;;;;4986845;28;20084;-88
2023/10/29 04:43:58;;;;;;;2.17;1.77;;;6.20;99.90;;;;;;4970780;28;20118;-88
2023/10/29 04:46:24;;;;;;;2.80;1.50;;;6.20;99.90;;;;;;4968636;28;20105;-87
2023/10/29 04:48:49;;;;;;;3.33;1.50;;;6.10;99.90;;;;;;4968847;28;20176;-87
2023/10/29 04:51:15;;;;;;;2.37;1.50;;;6.10;99.90;;;;;;4968616;28;20026;-88
2023/10/29 04:53:41;;;;;;;3.00;1.83;;;6.10;99.90;;;;;;4968584;28;20031;-88
2023/10/29 04:56:06;;;;;;;3.63;2.17;;;6.00;99.90;;;;;;4967875;28;20999;-87
2023/10/29 04:58:32;;;;;;;4.80;2.30;;;6.00;99.90;;;;;;4968461;28;20056;-88
2023/10/29 05:00:58;;;;;;;4.93;2.13;;;6.00;99.90;;;;;;4968569;28;20153;-88
2023/10/29 05:03:24;;;;;;;3.50;1.80;;;5.90;99.90;;;;;;4967489;28;20245;-87
2023/10/29 05:05:50;;;;;;;4.70;3.40;;;5.90;99.90;;;;;;4967523;28;20073;-87
2023/10/29 05:08:16;;;;;;;10.13;5.10;;;5.90;99.90;;;;;;4967183;28;20054;-88
2023/10/29 05:10:43;;;;;;;5.80;2.80;;;5.90;99.90;;;;;;4969027;28;20162;-87
2023/10/29 05:13:09;;;;;;;5.30;2.53;;;5.90;99.90;;;;;;4968402;28;20065;-89
2023/10/29 05:15:34;;;;;;;4.17;2.13;;;5.90;99.90;;;;;;4967468;28;20156;-87
2023/10/29 05:18:00;;;;;;;2.93;1.77;;;5.90;99.90;;;;;;4968424;28;20096;-88
2023/10/29 05:20:25;;;;;;;5.10;1.90;;;5.90;99.90;;;;;;4968298;28;20050;-87
2023/10/29 05:22:51;;;;;;;3.53;1.73;;;5.90;99.90;;;;;;4967773;28;20782;-88
2023/10/29 05:25:16;;;;;;;3.90;1.80;;;5.90;99.90;;;;;;4967312;28;20023;-87
2023/10/29 05:27:55;;;;;;;3.90;1.90;;;5.90;99.90;;;;;;4967543;28;20038;-89
2023/10/29 05:30:21;;;;;;;3.20;1.90;;;5.90;99.90;;;;;;4967802;28;20031;-87
2023/10/29 05:32:47;;;;;;;3.03;1.60;;;5.90;99.90;;;;;;4968974;28;20031;-88
2023/10/29 05:35:13;;;;;;;5.10;2.10;;;5.80;99.90;;;;;;4969200;28;20620;-87
2023/10/29 05:37:39;;;;;;;2.93;2.30;;;5.80;99.90;;;;;;4971792;28;20026;-89
2023/10/29 05:40:07;;;;;;;4.00;2.10;;;5.80;99.90;;;;;;4975189;28;20027;-88
2023/10/29 05:42:33;;;;;;;4.43;2.20;;;5.70;99.90;;;;;;4975671;28;20039;-88
2023/10/29 05:44:59;;;;;;;4.57;2.23;;;5.70;99.90;;;;;;4966862;28;20027;-88
2023/10/29 05:47:24;;;;;;;2.87;2.20;;;5.70;99.90;;;;;;4967826;28;20034;-88
2023/10/29 05:49:50;;;;;;;4.70;2.60;;;5.70;99.90;;;;;;4966820;28;20035;-86
2023/10/29 05:52:15;;;;;;;5.10;3.37;;;5.70;99.90;;;;;;4967708;28;20039;-87
2023/10/29 05:54:41;;;;;;;10.90;5.03;;;5.70;99.90;;;;;;4966913;28;20034;-87
2023/10/29 05:57:07;;;;;;;19.50;13.63;;;5.70;99.90;;;;;;4966721;28;20034;-87
2023/10/29 05:59:32;;;;;;;15.27;11.37;;;5.70;99.90;;;;;;4966345;28;20073;-86
2023/10/29 06:01:59;;;;;;;25.63;23.13;;;5.60;99.90;;;;;;4967191;28;20760;-86
2023/10/29 06:04:25;;;;;;;12.03;10.47;;;5.70;99.90;;;;;;4967200;28;20074;-86
2023/10/29 06:06:51;;;;;;;6.70;4.63;;;5.70;99.90;;;;;;4964788;28;20930;-86
2023/10/29 06:09:16;;;;;;;5.83;3.70;;;5.70;99.90;;;;;;4964709;28;20026;-87
2023/10/29 06:11:42;;;;;;;3.87;2.73;;;5.70;99.90;;;;;;4948447;28;20797;-87
2023/10/29 06:14:08;;;;;;;7.03;3.00;;;5.70;99.90;;;;;;4964883;28;20027;-87
2023/10/29 06:16:34;;;;;;;5.20;3.37;;;5.70;99.90;;;;;;4966161;28;20039;-87
2023/10/29 06:19:02;;;;;;;5.00;2.80;;;5.80;99.90;;;;;;4972852;28;20104;-86
2023/10/29 06:21:29;;;;;;;25.03;22.60;;;5.80;99.90;;;;;;4972216;28;20035;-86
2023/10/29 06:23:54;;;;;;;17.23;15.50;;;5.80;99.90;;;;;;4968033;28;20774;-87
2023/10/29 06:26:20;;;;;;;7.70;5.60;;;5.80;99.90;;;;;;4974683;28;20031;-87
2023/10/29 06:28:45;;;;;;;8.57;4.90;;;5.90;99.90;;;;;;4965554;28;21442;-86
2023/10/29 06:31:11;;;;;;;8.47;5.30;;;5.90;99.90;;;;;;4966016;28;20034;-85
2023/10/29 06:33:37;;;;;;;5.10;3.87;;;6.00;99.90;;;;;;4965042;28;20023;-86
2023/10/29 06:36:03;;;;;;;7.07;4.00;;;6.00;99.90;;;;;;4964073;28;20098;-86
2023/10/29 06:38:29;;;;;;;4.63;3.10;;;6.00;99.90;;;;;;4965682;28;20405;-86
2023/10/29 06:40:54;;;;;;;5.53;3.90;;;6.00;99.90;;;;;;4965419;28;20019;-86
2023/10/29 06:43:20;;;;;;;3.17;2.53;;;6.10;99.90;;;;;;4966086;28;20070;-87
2023/10/29 06:45:46;;;;;;;5.87;2.40;;;6.00;99.90;;;;;;4967337;28;20062;-86
2023/10/29 06:48:11;;;;;;;3.93;2.10;;;6.00;99.90;;;;;;4966365;28;20031;-86
2023/10/29 06:50:37;;;;;;;6.53;2.53;;;6.00;99.90;;;;;;4963725;28;20106;-86
2023/10/29 06:53:05;;;;;;;5.07;2.40;;;6.00;99.90;;;;;;4965845;28;21497;-85
2023/10/29 06:55:31;;;;;;;2.97;2.10;;;6.10;99.90;;;;;;4962019;28;20046;-86
2023/10/29 06:57:56;;;;;;;4.73;2.43;;;6.20;99.90;;;;;;4964119;28;20497;-85
2023/10/29 07:00:22;;;;;;;2.63;1.97;;;6.30;99.90;;;;;;4965375;28;20037;-84
2023/10/29 07:02:48;;;;;;;3.80;2.30;;;6.40;99.90;;;;;;4966951;28;20045;-84
2023/10/29 07:05:14;;;;;;;5.47;2.40;;;6.50;99.90;;;;;;4968973;28;20060;-84
2023/10/29 07:07:39;;;;;;;2.60;1.67;;;6.60;99.90;;;;;;4965066;28;20501;-85
2023/10/29 07:10:06;;;;;;;2.50;1.70;;;6.80;99.90;;;;;;4966035;28;20026;-85
2023/10/29 07:12:31;;;;;;;2.50;1.73;;;7.00;99.90;;;;;;4963751;28;20038;-85
2023/10/29 07:14:58;;;;;;;3.40;2.03;;;7.20;99.90;;;;;;4964874;28;20023;-79
2023/10/29 07:17:24;;;;;;;4.47;2.17;;;7.40;99.90;;;;;;4966545;28;20038;-85
2023/10/29 07:19:50;;;;;;;4.40;2.27;;;7.60;99.90;;;;;;4967594;28;20035;-85
2023/10/29 07:22:16;;;;;;;3.87;2.50;;;7.90;99.90;;;;;;4967418;28;20035;-85
2023/10/29 07:24:42;;;;;;;2.67;1.73;;;8.10;99.90;;;;;;4965201;28;20077;-85
2023/10/29 07:27:07;;;;;;;3.67;1.70;;;8.30;99.90;;;;;;4962599;28;20031;-86
2023/10/29 07:29:33;;;;;;;3.60;2.00;;;8.50;99.90;;;;;;4965723;28;20125;-86
2023/10/29 07:31:59;;;;;;;6.90;1.90;;;8.70;99.90;;;;;;4971334;28;20120;-83
2023/10/29 07:34:24;;;;;;;4.57;1.67;;;8.90;99.90;;;;;;4970622;28;20042;-82
2023/10/29 07:36:50;;;;;;;3.17;1.77;;;9.00;99.90;;;;;;4987768;28;20023;-81
2023/10/29 07:39:15;;;;;;;3.63;1.70;;;9.10;99.90;;;;;;4991655;28;20046;-84
2023/10/29 07:41:41;;;;;;;3.97;1.90;;;9.20;99.90;;;;;;4980546;28;20030;-84
2023/10/29 07:44:06;;;;;;;3.80;1.90;;;9.30;99.90;;;;;;4965999;28;20115;-85
2023/10/29 07:46:32;;;;;;;3.67;1.90;;;9.30;99.90;;;;;;4963865;28;20042;-86
2023/10/29 07:48:57;;;;;;;2.70;2.17;;;9.30;99.90;;;;;;4963784;28;20042;-90
2023/10/29 07:51:23;;;;;;;5.23;2.33;;;9.40;99.90;;;;;;4965434;28;20069;-75
2023/10/29 07:53:49;;;;;;;5.57;2.10;;;9.40;99.90;;;;;;4962722;28;20035;-77
2023/10/29 07:56:15;;;;;;;5.27;2.10;;;9.50;99.90;;;;;;4962974;28;20031;-82
2023/10/29 07:58:42;;;;;;;4.77;1.97;;;9.60;99.90;;;;;;4962951;28;20041;-85
2023/10/29 08:01:11;;;;;;;3.47;2.23;;;9.60;99.90;;;;;;4962261;28;20069;-85
2023/10/29 08:03:38;;;;;;;4.27;2.30;;;9.80;99.90;;;;;;4962080;28;20034;-85
2023/10/29 08:06:04;;;;;;;4.30;2.10;;;9.90;99.90;;;;;;4964004;28;20031;-82
2023/10/29 08:08:30;;;;;;;8.05;2.75;;;10.10;99.90;;;;;;4964856;28;20045;-82
2023/10/29 08:10:55;;;;;;;5.28;2.30;;;10.20;99.90;;;;;;4964902;28;20050;-82
2023/10/29 08:13:21;;;;;;;2.95;1.85;;;10.40;99.90;;;;;;4965215;28;20900;-82
2023/10/29 08:15:46;;;;;;;4.20;2.25;;;10.50;99.90;;;;;;4970190;28;20494;-84
2023/10/29 08:18:12;;;;;;;3.53;1.80;;;10.60;99.90;;;;;;4971426;28;20031;-84
2023/10/29 08:20:38;;;;;;;3.05;1.92;;;10.80;99.90;;;;;;4973004;28;20030;-83
2023/10/29 08:23:03;;;;;;;3.85;1.70;;;10.90;99.90;;;;;;4975607;28;20030;-83
2023/10/29 08:25:29;;;;;;;3.63;1.67;;;10.90;99.90;;;;;;4977274;28;20041;-86
2023/10/29 08:27:54;;;;;;;2.70;1.70;;;11.00;99.90;;;;;;4980395;28;20960;-84
2023/10/29 08:30:20;;;;;;;2.83;1.63;;;11.10;99.90;;;;;;4980664;28;20026;-83
2023/10/29 08:32:45;;;;;;;2.78;1.50;;;11.20;99.90;;;;;;4974729;28;20113;-83
2023/10/29 08:35:11;;;;;;;2.10;1.55;;;11.30;99.90;;;;;;4972761;28;20034;-84
2023/10/29 08:37:37;;;;;;;4.18;1.80;;;11.40;99.90;;;;;;4976709;28;20027;-82
2023/10/29 08:40:03;;;;;;;4.40;1.58;;;11.40;99.90;;;;;;4972508;28;20041;-83
2023/10/29 08:42:30;;;;;;;2.97;1.40;;;11.50;99.90;;;;;;4970567;28;20065;-84
2023/10/29 08:44:59;;;;;;;2.33;1.60;;;11.60;99.90;;;;;;4970453;28;20035;-85
2023/10/29 08:47:26;;;;;;;3.45;1.65;;;11.60;99.90;;;;;;4970955;28;20073;-81
2023/10/29 08:49:52;;;;;;;3.22;1.50;;;11.70;99.90;;;;;;4972310;28;20626;-80
2023/10/29 08:52:18;;;;;;;4.93;1.70;;;11.80;99.90;;;;;;4976007;28;20082;-81
2023/10/29 08:54:45;;;;;;;3.13;1.80;;;11.90;99.90;;;;;;4975894;28;20046;-87
2023/10/29 08:57:10;;;;;;;7.05;3.80;;;11.90;99.90;;;;;;4980434;28;20042;-87
2023/10/29 08:59:37;;;;;;;4.82;2.38;;;12.00;99.90;;;;;;4975034;28;20026;-87
2023/10/29 09:02:06;;;;;;;5.45;2.20;;;12.00;99.90;;;;;;4973697;28;20058;-89
2023/10/29 09:04:39;;;;;;;3.70;1.50;;;12.10;99.90;;;;;;4976681;28;20508;-91
2023/10/29 09:07:05;;;;;;;4.65;1.70;;;12.20;99.90;;;;;;4976052;28;20034;-92
2023/10/29 09:09:37;;;;;;;2.38;1.60;;;12.30;99.90;;;;;;4978275;28;20062;-92
2023/10/29 09:12:03;;;;;;;3.58;1.80;;;12.30;99.90;;;;;;4975412;28;20043;-92
2023/10/29 09:14:29;;;;;;;4.07;1.77;;;12.40;99.90;;;;;;4973614;28;20034;-92
2023/10/29 09:16:55;;;;;;;5.32;1.70;;;12.50;99.90;;;;;;4975237;28;20089;-93
2023/10/29 09:19:21;;;;;;;5.38;1.80;;;12.40;99.90;;;;;;4975888;28;20031;-92
2023/10/29 09:21:48;;;;;;;3.25;1.50;;;12.50;99.90;;;;;;4975779;28;20120;-92
2023/10/29 09:24:15;;;;;;;2.67;1.55;;;12.50;99.90;;;;;;4974202;28;20113;-92
2023/10/29 09:26:43;;;;;;;2.58;1.50;;;12.60;99.90;;;;;;4953787;28;20030;-88
2023/10/29 09:29:09;;;;;;;5.47;2.10;;;12.70;99.90;;;;;;4966715;28;20042;-89
2023/10/29 09:31:34;;;;;;;4.70;1.60;;;12.70;99.90;;;;;;4965879;28;20031;-89
2023/10/29 09:34:01;;;;;;;3.88;1.40;;;12.80;99.90;;;;;;4965324;28;20161;-89
2023/10/29 09:36:27;;;;;;;2.75;1.50;;;12.90;99.90;;;;;;4967568;28;20034;-89
2023/10/29 09:38:54;;;;;;;2.78;1.52;;;13.00;99.90;;;;;;4967590;28;20501;-89
2023/10/29 09:41:20;;;;;;;7.10;1.83;;;13.10;99.90;;;;;;4966648;28;20035;-89
2023/10/29 09:43:46;;;;;;;4.32;1.60;;;13.20;99.90;;;;;;4966962;28;20057;-89
2023/10/29 09:46:12;;;;;;;8.05;1.80;;;13.30;99.90;;;;;;4965664;28;20038;-90
2023/10/29 09:48:39;;;;;;;4.88;1.67;;;13.60;99.90;;;;;;4967642;28;20038;-90
2023/10/29 09:51:06;;;;;;;3.70;1.38;;;13.80;99.90;;;;;;4967036;28;20037;-88
2023/10/29 09:53:40;;;;;;;4.18;1.40;;;14.00;99.90;;;;;;4967564;28;20114;-85
2023/10/29 09:56:09;;;;;;;2.72;1.38;;;14.20;99.90;;;;;;4967996;28;20402;-91
2023/10/29 09:58:35;;;;;;;2.45;1.00;;;14.50;99.90;;;;;;4969873;28;20665;-91
2023/10/29 10:01:05;;;;;;;2.70;1.27;;;14.80;99.90;;;;;;4950073;28;20069;-82
2023/10/29 10:03:31;;;;;;;3.70;1.35;;;15.10;99.90;;;;;;4970096;28;20042;-82
2023/10/29 10:05:58;;;;;;;2.38;1.10;;;15.30;99.90;;;;;;4970958;28;20026;-82
2023/10/29 10:08:28;;;;;;;2.00;1.30;;;15.60;99.90;;;;;;4970061;28;20058;-82
2023/10/29 10:10:55;;;;;;;2.88;0.88;;;15.80;99.90;;;;;;4969768;28;20111;-81
2023/10/29 10:13:41;;;;;;;2.60;1.15;;;16.10;99.90;;;;;;4969028;28;20057;-81
2023/10/29 10:16:09;;;;;;;2.20;0.95;;;16.30;99.90;;;;;;4967798;28;20101;-80
2023/10/29 10:19:13;;;;;;;3.15;1.10;;;16.50;99.90;;;;;;4963538;28;20124;-84
2023/10/29 10:21:44;;;;;;;4.30;0.98;;;16.70;99.90;;;;;;4913923;29;20036;-88
2023/10/29 10:24:10;;;;;;;4.35;1.70;;;16.90;99.90;;;;;;4957881;28;20038;-88
2023/10/29 10:26:37;;;;;;;3.22;1.10;;;17.10;99.90;;;;;;4972254;28;20061;-89
2023/10/29 10:29:04;;;;;;;2.85;1.13;;;17.20;99.90;;;;;;4979635;28;20034;-89
2023/10/29 10:31:31;;;;;;;2.15;1.05;;;17.30;99.90;;;;;;4991196;28;20065;-89
2023/10/29 10:34:14;;;;;;;2.50;0.90;;;17.40;99.90;;;;;;4990845;28;20019;-87
2023/10/29 10:36:44;;;;;;;3.55;1.10;;;17.50;99.90;;;;;;4988092;28;20077;-86
2023/10/29 10:39:11;;;;;;;3.70;1.75;;;17.70;99.90;;;;;;4969138;28;20027;-86
2023/10/29 10:41:46;;;;;;;2.28;1.30;;;17.90;99.90;;;;;;4965737;28;20066;-87
2023/10/29 10:44:16;;;;;;;5.13;1.17;;;18.10;99.90;;;;;;4969735;28;20160;-88
2023/10/29 10:46:47;;;;;;;2.05;0.90;;;18.20;99.90;;;;;;4967577;28;20023;-88
2023/10/29 10:49:14;;;;;;;4.03;1.10;;;18.30;99.90;;;;;;4967601;28;20046;-89
2023/10/29 10:51:40;;;;;;;2.15;0.90;;;18.30;99.90;;;;;;4967167;28;20062;-88
2023/10/29 10:54:06;;;;;;;2.47;1.10;;;18.30;99.90;;;;;;4965208;28;20550;-88
2023/10/29 10:56:36;;;;;;;5.03;1.00;;;18.30;99.90;;;;;;4964774;28;20066;-88
2023/10/29 10:59:06;;;;;;;3.00;1.00;;;18.20;99.90;;;;;;4968124;28;20089;-88
2023/10/29 11:01:35;;;;;;;2.72;1.00;;;18.20;99.90;;;;;;4969167;28;20041;-89
2023/10/29 11:04:03;;;;;;;2.25;0.85;;;18.30;99.90;;;;;;4967433;28;20053;-89
2023/10/29 11:06:29;;;;;;;4.20;1.30;;;18.30;99.90;;;;;;4966080;28;20019;-89
2023/10/29 11:08:55;;;;;;;1.70;0.90;;;18.20;99.90;;;;;;4965738;28;21075;-89
2023/10/29 11:11:25;;;;;;;2.55;1.02;;;18.20;99.90;;;;;;4964709;28;20039;-89
2023/10/29 11:14:15;;;;;;;1.60;0.98;;;18.20;99.90;;;;;;4964624;28;20042;-89
2023/10/29 11:16:59;;;;;;;3.70;0.90;;;18.10;99.90;;;;;;4967400;28;20045;-89
2023/10/29 11:19:44;;;;;;;1.92;0.90;;;18.10;99.90;;;;;;4967145;28;20023;-89
2023/10/29 11:22:29;;;;;;;1.55;0.80;;;18.00;99.90;;;;;;4967788;28;20029;-88
2023/10/29 11:25:09;;;;;;;2.90;1.10;;;18.00;99.90;;;;;;4965835;28;20035;-88
2023/10/29 11:27:38;;;;;;;3.53;1.15;;;18.00;99.90;;;;;;4965071;28;20117;-88
2023/10/29 11:30:12;;;;;;;4.88;1.55;;;17.90;99.90;;;;;;4962922;28;20030;-89
2023/10/29 11:32:38;;;;;;;2.75;0.90;;;17.90;99.90;;;;;;4965385;28;20037;-88
2023/10/29 11:35:17;;;;;;;3.88;1.33;;;17.90;99.90;;;;;;4965344;28;20023;-88
2023/10/29 11:37:43;;;;;;;2.63;1.20;;;18.00;99.90;;;;;;4964777;28;20023;-88
2023/10/29 11:40:29;;;;;;;3.47;1.50;;;18.10;99.90;;;;;;4965422;28;20114;-89
2023/10/29 11:42:59;;;;;;;3.38;1.77;;;18.20;99.90;;;;;;4966410;28;20023;-88
2023/10/29 11:45:28;;;;;;;3.03;1.80;;;18.20;99.90;;;;;;4965634;28;20121;-88
2023/10/29 11:48:09;;;;;;;2.78;1.60;;;18.20;99.90;;;;;;4965510;28;20524;-88
2023/10/29 11:50:35;;;;;;;3.58;1.77;;;18.10;99.90;;;;;;4965674;28;20030;-89
2023/10/29 11:53:01;;;;;;;5.43;1.42;;;18.00;99.90;;;;;;4965278;28;20041;-88
2023/10/29 11:55:27;;;;;;;3.72;1.75;;;17.90;99.90;;;;;;4964541;28;20027;-88
2023/10/29 11:57:54;;;;;;;2.97;1.63;;;17.80;99.90;;;;;;4965674;28;20034;-88
2023/10/29 12:00:23;;;;;;;3.53;1.58;;;17.60;99.90;;;;;;4965218;28;20058;-88
2023/10/29 12:02:48;;;;;;;6.30;1.48;;;17.60;99.90;;;;;;4965254;28;20034;-90
2023/10/29 12:05:15;;;;;;;2.85;1.40;;;17.40;99.90;;;;;;4965241;28;20521;-88
2023/10/29 12:07:41;;;;;;;5.20;1.60;;;17.40;99.90;;;;;;4965834;28;20152;-89
2023/10/29 12:10:07;;;;;;;5.10;1.52;;;17.30;99.90;;;;;;4966133;28;20494;-89
2023/10/29 12:12:34;;;;;;;3.10;1.50;;;17.20;99.90;;;;;;4969833;28;20248;-89
2023/10/29 12:15:00;;;;;;;3.85;1.60;;;17.10;99.90;;;;;;4970675;28;20413;-88
2023/10/29 12:17:29;;;;;;;5.22;1.85;;;17.10;99.90;;;;;;4970066;28;20160;-89
2023/10/29 12:19:55;;;;;;;3.50;1.50;;;17.00;99.90;;;;;;4968547;28;20030;-88
2023/10/29 12:22:27;;;;;;;3.75;1.80;;;17.00;99.90;;;;;;4967324;28;20160;-89
2023/10/29 12:24:55;;;;;;;3.42;1.35;;;17.10;99.90;;;;;;4964763;28;20022;-89
2023/10/29 12:27:22;;;;;;;1.73;1.30;;;17.00;99.90;;;;;;4964476;28;20026;-89
2023/10/29 12:29:49;;;;;;;3.53;1.67;;;16.90;99.90;;;;;;4965451;28;21165;-88
2023/10/29 12:32:17;;;;;;;2.88;1.48;;;17.00;99.90;;;;;;4965168;28;20030;-88
2023/10/29 12:34:49;;;;;;;3.45;1.67;;;17.00;99.90;;;;;;4965096;28;20105;-88
2023/10/29 12:37:29;;;;;;;2.83;1.48;;;16.90;99.90;;;;;;4965596;28;20030;-90
2023/10/29 12:39:56;;;;;;;5.13;1.52;;;17.00;99.90;;;;;;4964926;28;20037;-88
2023/10/29 12:42:42;;;;;;;3.88;1.70;;;17.00;99.90;;;;;;4966174;28;20026;-88
2023/10/29 12:45:08;;;;;;;6.40;1.60;;;16.90;99.90;;;;;;4964520;28;20078;-88
2023/10/29 12:47:34;;;;;;;4.30;1.40;;;16.90;99.90;;;;;;4965551;28;20065;-88
2023/10/29 12:50:01;;;;;;;2.88;1.50;;;16.90;99.90;;;;;;4968206;28;20093;-88
2023/10/29 12:52:30;;;;;;;2.63;1.50;;;16.80;99.90;;;;;;4966835;28;20035;-88